sensor_id;sensor_type;location;lat;lon;timestamp;temperature;humidity
42097;DHT22;27754;45.414;11.084;2023-06-22T00:00:12;25.30;73.60
42097;DHT22;27754;45.414;11.084;2023-06-22T00:02:39;25.20;73.90
42097;DHT22;27754;45.414;11.084;2023-06-22T00:05:06;25.20;74.20
42097;DHT22;27754;45.414;11.084;2023-06-22T00:07:34;25.10;74.40
42097;DHT22;27754;45.414;11.084;2023-06-22T00:10:01;25.10;74.50
42097;DHT22;27754;45.414;11.084;2023-06-22T00:12:27;25.10;74.50
42097;DHT22;27754;45.414;11.084;2023-06-22T00:14:55;25.10;74.00
42097;DHT22;27754;45.414;11.084;2023-06-22T00:17:22;25.10;73.90
42097;DHT22;27754;45.414;11.084;2023-06-22T00:19:49;25.10;73.60
42097;DHT22;27754;45.414;11.084;2023-06-22T00:22:20;25.20;72.90
42097;DHT22;27754;45.414;11.084;2023-06-22T00:24:55;25.20;72.30
42097;DHT22;27754;45.414;11.084;2023-06-22T00:27:22;25.30;72.20
42097;DHT22;27754;45.414;11.084;2023-06-22T00:29:49;25.30;72.20
42097;DHT22;27754;45.414;11.084;2023-06-22T00:32:16;25.30;72.00
42097;DHT22;27754;45.414;11.084;2023-06-22T00:34:46;25.40;71.90
42097;DHT22;27754;45.414;11.084;2023-06-22T00:37:13;25.40;71.90
42097;DHT22;27754;45.414;11.084;2023-06-22T00:39:42;25.40;72.00
42097;DHT22;27754;45.414;11.084;2023-06-22T00:42:10;25.40;72.40
42097;DHT22;27754;45.414;11.084;2023-06-22T00:44:37;25.50;72.50
42097;DHT22;27754;45.414;11.084;2023-06-22T00:47:04;25.40;72.90
42097;DHT22;27754;45.414;11.084;2023-06-22T00:49:33;25.40;73.10
42097;DHT22;27754;45.414;11.084;2023-06-22T00:52:01;25.30;73.30
42097;DHT22;27754;45.414;11.084;2023-06-22T00:54:29;25.20;74.20
42097;DHT22;27754;45.414;11.084;2023-06-22T00:56:57;25.20;73.80
42097;DHT22;27754;45.414;11.084;2023-06-22T00:59:26;25.00;74.10
42097;DHT22;27754;45.414;11.084;2023-06-22T01:01:54;24.90;74.90
42097;DHT22;27754;45.414;11.084;2023-06-22T01:04:34;24.90;74.70
42097;DHT22;27754;45.414;11.084;2023-06-22T01:09:35;25.00;74.60
42097;DHT22;27754;45.414;11.084;2023-06-22T01:12:07;24.90;74.50
42097;DHT22;27754;45.414;11.084;2023-06-22T01:14:46;24.90;74.40
42097;DHT22;27754;45.414;11.084;2023-06-22T01:17:19;24.90;74.40
42097;DHT22;27754;45.414;11.084;2023-06-22T01:19:49;24.90;74.50
42097;DHT22;27754;45.414;11.084;2023-06-22T01:22:25;24.80;74.50
42097;DHT22;27754;45.414;11.084;2023-06-22T01:25:15;24.80;75.00
42097;DHT22;27754;45.414;11.084;2023-06-22T01:30:43;24.80;75.20
42097;DHT22;27754;45.414;11.084;2023-06-22T01:33:13;24.80;75.50
42097;DHT22;27754;45.414;11.084;2023-06-22T01:35:41;24.80;75.70
42097;DHT22;27754;45.414;11.084;2023-06-22T01:38:09;24.70;75.60
42097;DHT22;27754;45.414;11.084;2023-06-22T01:40:37;24.60;76.10
42097;DHT22;27754;45.414;11.084;2023-06-22T01:43:04;24.60;76.10
42097;DHT22;27754;45.414;11.084;2023-06-22T01:45:35;24.60;75.90
42097;DHT22;27754;45.414;11.084;2023-06-22T01:48:02;24.60;75.90
42097;DHT22;27754;45.414;11.084;2023-06-22T01:50:29;24.70;75.90
42097;DHT22;27754;45.414;11.084;2023-06-22T01:52:57;24.50;75.90
42097;DHT22;27754;45.414;11.084;2023-06-22T01:55:25;24.40;76.20
42097;DHT22;27754;45.414;11.084;2023-06-22T01:57:52;24.40;75.90
42097;DHT22;27754;45.414;11.084;2023-06-22T02:00:21;24.40;75.90
42097;DHT22;27754;45.414;11.084;2023-06-22T02:03:01;24.30;76.00
42097;DHT22;27754;45.414;11.084;2023-06-22T02:05:35;24.30;76.20
42097;DHT22;27754;45.414;11.084;2023-06-22T02:08:13;24.30;76.20
42097;DHT22;27754;45.414;11.084;2023-06-22T02:10:44;24.30;75.70
42097;DHT22;27754;45.414;11.084;2023-06-22T02:13:13;24.30;75.50
42097;DHT22;27754;45.414;11.084;2023-06-22T02:15:41;24.30;75.50
42097;DHT22;27754;45.414;11.084;2023-06-22T02:18:12;24.30;75.50
42097;DHT22;27754;45.414;11.084;2023-06-22T02:20:40;24.30;75.10
42097;DHT22;27754;45.414;11.084;2023-06-22T02:23:07;24.30;75.10
42097;DHT22;27754;45.414;11.084;2023-06-22T02:25:35;24.30;75.20
42097;DHT22;27754;45.414;11.084;2023-06-22T02:28:03;24.30;75.50
42097;DHT22;27754;45.414;11.084;2023-06-22T02:30:30;24.30;76.00
42097;DHT22;27754;45.414;11.084;2023-06-22T02:32:59;24.20;76.00
42097;DHT22;27754;45.414;11.084;2023-06-22T02:35:28;24.10;75.90
42097;DHT22;27754;45.414;11.084;2023-06-22T02:37:59;24.10;75.60
42097;DHT22;27754;45.414;11.084;2023-06-22T02:40:28;24.00;76.10
42097;DHT22;27754;45.414;11.084;2023-06-22T02:42:57;24.00;75.30
42097;DHT22;27754;45.414;11.084;2023-06-22T02:45:29;24.00;75.60
42097;DHT22;27754;45.414;11.084;2023-06-22T02:47:57;24.00;75.30
42097;DHT22;27754;45.414;11.084;2023-06-22T02:50:24;24.00;75.50
42097;DHT22;27754;45.414;11.084;2023-06-22T02:52:53;24.00;75.50
42097;DHT22;27754;45.414;11.084;2023-06-22T02:55:21;23.90;75.20
42097;DHT22;27754;45.414;11.084;2023-06-22T02:57:54;24.00;75.30
42097;DHT22;27754;45.414;11.084;2023-06-22T03:00:22;24.00;75.70
42097;DHT22;27754;45.414;11.084;2023-06-22T03:02:49;23.90;75.80
42097;DHT22;27754;45.414;11.084;2023-06-22T03:05:17;23.80;76.30
42097;DHT22;27754;45.414;11.084;2023-06-22T03:07:45;23.80;75.90
42097;DHT22;27754;45.414;11.084;2023-06-22T03:10:13;23.80;76.20
42097;DHT22;27754;45.414;11.084;2023-06-22T03:12:42;23.80;76.10
42097;DHT22;27754;45.414;11.084;2023-06-22T03:15:11;23.80;75.10
42097;DHT22;27754;45.414;11.084;2023-06-22T03:17:40;23.80;74.80
42097;DHT22;27754;45.414;11.084;2023-06-22T03:20:09;23.80;74.20
42097;DHT22;27754;45.414;11.084;2023-06-22T03:22:41;23.90;74.10
42097;DHT22;27754;45.414;11.084;2023-06-22T03:25:09;23.90;74.00
42097;DHT22;27754;45.414;11.084;2023-06-22T03:27:46;24.00;73.60
42097;DHT22;27754;45.414;11.084;2023-06-22T03:30:15;24.10;73.40
42097;DHT22;27754;45.414;11.084;2023-06-22T03:32:42;24.20;73.10
42097;DHT22;27754;45.414;11.084;2023-06-22T03:35:10;24.20;72.80
42097;DHT22;27754;45.414;11.084;2023-06-22T03:37:40;24.20;72.60
42097;DHT22;27754;45.414;11.084;2023-06-22T03:40:07;24.20;72.40
42097;DHT22;27754;45.414;11.084;2023-06-22T03:42:35;24.30;72.80
42097;DHT22;27754;45.414;11.084;2023-06-22T03:45:05;24.30;72.80
42097;DHT22;27754;45.414;11.084;2023-06-22T03:47:33;24.30;72.90
42097;DHT22;27754;45.414;11.084;2023-06-22T03:50:00;24.40;72.90
42097;DHT22;27754;45.414;11.084;2023-06-22T03:52:30;24.40;72.70
42097;DHT22;27754;45.414;11.084;2023-06-22T03:54:57;24.50;72.70
42097;DHT22;27754;45.414;11.084;2023-06-22T03:57:24;24.50;72.80
42097;DHT22;27754;45.414;11.084;2023-06-22T03:59:51;24.50;72.70
42097;DHT22;27754;45.414;11.084;2023-06-22T04:02:18;24.60;72.50
42097;DHT22;27754;45.414;11.084;2023-06-22T04:04:45;24.60;72.80
42097;DHT22;27754;45.414;11.084;2023-06-22T04:07:12;24.80;73.10
42097;DHT22;27754;45.414;11.084;2023-06-22T04:09:40;24.80;74.20
42097;DHT22;27754;45.414;11.084;2023-06-22T04:12:07;24.80;73.40
42097;DHT22;27754;45.414;11.084;2023-06-22T04:14:34;24.80;72.50
42097;DHT22;27754;45.414;11.084;2023-06-22T04:17:01;24.90;72.30
42097;DHT22;27754;45.414;11.084;2023-06-22T04:19:28;25.10;71.60
42097;DHT22;27754;45.414;11.084;2023-06-22T04:21:55;25.30;70.80
42097;DHT22;27754;45.414;11.084;2023-06-22T04:24:22;25.50;69.50
42097;DHT22;27754;45.414;11.084;2023-06-22T04:26:49;25.70;69.10
42097;DHT22;27754;45.414;11.084;2023-06-22T04:29:21;25.90;68.90
42097;DHT22;27754;45.414;11.084;2023-06-22T04:31:56;26.10;68.50
42097;DHT22;27754;45.414;11.084;2023-06-22T04:34:25;26.20;68.70
42097;DHT22;27754;45.414;11.084;2023-06-22T04:36:55;26.30;68.30
42097;DHT22;27754;45.414;11.084;2023-06-22T04:39:22;26.40;67.90
42097;DHT22;27754;45.414;11.084;2023-06-22T04:41:50;26.50;67.20
42097;DHT22;27754;45.414;11.084;2023-06-22T04:44:18;26.30;67.80
42097;DHT22;27754;45.414;11.084;2023-06-22T04:46:53;26.30;67.70
42097;DHT22;27754;45.414;11.084;2023-06-22T04:49:21;26.40;67.70
42097;DHT22;27754;45.414;11.084;2023-06-22T04:51:48;26.50;66.80
42097;DHT22;27754;45.414;11.084;2023-06-22T04:54:18;26.60;66.60
42097;DHT22;27754;45.414;11.084;2023-06-22T04:56:45;26.80;66.20
42097;DHT22;27754;45.414;11.084;2023-06-22T04:59:13;26.90;65.70
42097;DHT22;27754;45.414;11.084;2023-06-22T05:01:40;27.00;65.70
42097;DHT22;27754;45.414;11.084;2023-06-22T05:04:07;27.00;65.90
42097;DHT22;27754;45.414;11.084;2023-06-22T05:06:35;27.00;65.30
42097;DHT22;27754;45.414;11.084;2023-06-22T05:09:06;27.20;65.40
42097;DHT22;27754;45.414;11.084;2023-06-22T05:11:33;27.30;65.80
42097;DHT22;27754;45.414;11.084;2023-06-22T05:14:00;27.50;66.80
42097;DHT22;27754;45.414;11.084;2023-06-22T05:16:27;27.70;67.00
42097;DHT22;27754;45.414;11.084;2023-06-22T05:18:55;27.90;66.80
42097;DHT22;27754;45.414;11.084;2023-06-22T05:21:27;27.80;67.70
42097;DHT22;27754;45.414;11.084;2023-06-22T05:23:54;27.90;67.40
42097;DHT22;27754;45.414;11.084;2023-06-22T05:26:21;27.90;67.20
42097;DHT22;27754;45.414;11.084;2023-06-22T05:28:48;27.90;66.60
42097;DHT22;27754;45.414;11.084;2023-06-22T05:31:16;27.90;67.30
42097;DHT22;27754;45.414;11.084;2023-06-22T05:33:44;28.10;67.00
42097;DHT22;27754;45.414;11.084;2023-06-22T05:36:11;28.10;66.60
42097;DHT22;27754;45.414;11.084;2023-06-22T05:38:39;28.20;66.30
42097;DHT22;27754;45.414;11.084;2023-06-22T05:41:07;28.00;66.60
42097;DHT22;27754;45.414;11.084;2023-06-22T05:43:34;28.20;66.90
42097;DHT22;27754;45.414;11.084;2023-06-22T05:46:02;28.30;66.20
42097;DHT22;27754;45.414;11.084;2023-06-22T05:48:29;28.30;65.70
42097;DHT22;27754;45.414;11.084;2023-06-22T05:50:56;28.20;66.10
42097;DHT22;27754;45.414;11.084;2023-06-22T05:53:23;28.30;66.00
42097;DHT22;27754;45.414;11.084;2023-06-22T05:55:51;28.20;66.00
42097;DHT22;27754;45.414;11.084;2023-06-22T05:58:18;28.30;66.10
42097;DHT22;27754;45.414;11.084;2023-06-22T06:00:45;28.50;65.30
42097;DHT22;27754;45.414;11.084;2023-06-22T06:03:13;28.60;65.40
42097;DHT22;27754;45.414;11.084;2023-06-22T06:05:44;28.80;64.80
42097;DHT22;27754;45.414;11.084;2023-06-22T06:08:12;28.80;64.90
42097;DHT22;27754;45.414;11.084;2023-06-22T06:10:39;28.90;64.20
42097;DHT22;27754;45.414;11.084;2023-06-22T06:13:06;29.20;64.40
42097;DHT22;27754;45.414;11.084;2023-06-22T06:15:34;29.10;64.30
42097;DHT22;27754;45.414;11.084;2023-06-22T06:18:01;28.90;64.70
42097;DHT22;27754;45.414;11.084;2023-06-22T06:20:32;28.90;64.50
42097;DHT22;27754;45.414;11.084;2023-06-22T06:23:00;28.80;65.10
42097;DHT22;27754;45.414;11.084;2023-06-22T06:25:27;29.00;65.30
42097;DHT22;27754;45.414;11.084;2023-06-22T06:27:54;29.10;65.80
42097;DHT22;27754;45.414;11.084;2023-06-22T06:30:21;28.90;65.20
42097;DHT22;27754;45.414;11.084;2023-06-22T06:32:50;28.80;65.70
42097;DHT22;27754;45.414;11.084;2023-06-22T06:35:17;28.90;66.00
42097;DHT22;27754;45.414;11.084;2023-06-22T06:37:47;28.90;65.60
42097;DHT22;27754;45.414;11.084;2023-06-22T06:40:15;29.00;65.90
42097;DHT22;27754;45.414;11.084;2023-06-22T06:42:44;29.00;66.20
42097;DHT22;27754;45.414;11.084;2023-06-22T06:45:14;29.10;66.80
42097;DHT22;27754;45.414;11.084;2023-06-22T06:47:42;29.30;66.30
42097;DHT22;27754;45.414;11.084;2023-06-22T06:50:09;29.40;66.30
42097;DHT22;27754;45.414;11.084;2023-06-22T06:52:37;29.50;66.90
42097;DHT22;27754;45.414;11.084;2023-06-22T06:55:05;29.50;66.70
42097;DHT22;27754;45.414;11.084;2023-06-22T06:57:39;29.60;66.70
42097;DHT22;27754;45.414;11.084;2023-06-22T07:00:07;29.70;66.50
42097;DHT22;27754;45.414;11.084;2023-06-22T07:02:38;29.80;65.90
42097;DHT22;27754;45.414;11.084;2023-06-22T07:05:10;29.80;67.00
42097;DHT22;27754;45.414;11.084;2023-06-22T07:07:38;29.80;66.90
42097;DHT22;27754;45.414;11.084;2023-06-22T07:10:06;29.80;67.00
42097;DHT22;27754;45.414;11.084;2023-06-22T07:12:33;29.90;66.70
42097;DHT22;27754;45.414;11.084;2023-06-22T07:15:02;30.00;67.40
42097;DHT22;27754;45.414;11.084;2023-06-22T07:17:30;30.30;66.30
42097;DHT22;27754;45.414;11.084;2023-06-22T07:19:57;30.50;65.60
42097;DHT22;27754;45.414;11.084;2023-06-22T07:22:24;30.80;64.40
42097;DHT22;27754;45.414;11.084;2023-06-22T07:24:51;30.70;64.20
42097;DHT22;27754;45.414;11.084;2023-06-22T07:27:18;30.80;63.90
42097;DHT22;27754;45.414;11.084;2023-06-22T07:29:46;31.00;64.20
42097;DHT22;27754;45.414;11.084;2023-06-22T07:32:13;31.00;63.90
42097;DHT22;27754;45.414;11.084;2023-06-22T07:34:40;31.00;64.50
42097;DHT22;27754;45.414;11.084;2023-06-22T07:37:08;31.20;64.40
42097;DHT22;27754;45.414;11.084;2023-06-22T07:39:35;31.30;62.90
42097;DHT22;27754;45.414;11.084;2023-06-22T07:42:04;31.40;63.50
42097;DHT22;27754;45.414;11.084;2023-06-22T07:44:31;31.40;63.30
42097;DHT22;27754;45.414;11.084;2023-06-22T07:46:58;31.40;63.80
42097;DHT22;27754;45.414;11.084;2023-06-22T07:49:27;31.30;63.70
42097;DHT22;27754;45.414;11.084;2023-06-22T07:51:54;31.40;62.80
42097;DHT22;27754;45.414;11.084;2023-06-22T07:54:21;31.40;62.60
42097;DHT22;27754;45.414;11.084;2023-06-22T07:56:48;31.50;62.70
42097;DHT22;27754;45.414;11.084;2023-06-22T07:59:15;31.50;62.20
42097;DHT22;27754;45.414;11.084;2023-06-22T08:01:42;31.50;62.30
42097;DHT22;27754;45.414;11.084;2023-06-22T08:04:09;31.80;61.00
42097;DHT22;27754;45.414;11.084;2023-06-22T08:06:37;32.00;60.10
42097;DHT22;27754;45.414;11.084;2023-06-22T08:09:04;32.30;58.70
42097;DHT22;27754;45.414;11.084;2023-06-22T08:11:31;32.20;59.00
42097;DHT22;27754;45.414;11.084;2023-06-22T08:13:58;32.30;58.60
42097;DHT22;27754;45.414;11.084;2023-06-22T08:16:25;32.50;57.00
42097;DHT22;27754;45.414;11.084;2023-06-22T08:18:52;32.70;57.30
42097;DHT22;27754;45.414;11.084;2023-06-22T08:21:19;32.90;57.20
42097;DHT22;27754;45.414;11.084;2023-06-22T08:23:48;33.20;57.10
42097;DHT22;27754;45.414;11.084;2023-06-22T08:26:15;33.10;56.60
42097;DHT22;27754;45.414;11.084;2023-06-22T08:28:42;33.20;54.80
42097;DHT22;27754;45.414;11.084;2023-06-22T08:31:09;33.10;54.70
42097;DHT22;27754;45.414;11.084;2023-06-22T08:33:36;33.30;54.10
42097;DHT22;27754;45.414;11.084;2023-06-22T08:36:06;33.50;53.80
42097;DHT22;27754;45.414;11.084;2023-06-22T08:38:35;33.50;54.10
42097;DHT22;27754;45.414;11.084;2023-06-22T08:41:02;33.60;54.10
42097;DHT22;27754;45.414;11.084;2023-06-22T08:43:29;33.70;55.30
42097;DHT22;27754;45.414;11.084;2023-06-22T08:45:56;33.90;53.90
42097;DHT22;27754;45.414;11.084;2023-06-22T08:48:23;33.90;54.00
42097;DHT22;27754;45.414;11.084;2023-06-22T08:50:50;33.90;54.30
42097;DHT22;27754;45.414;11.084;2023-06-22T08:53:17;34.00;52.90
42097;DHT22;27754;45.414;11.084;2023-06-22T08:55:44;34.10;53.00
42097;DHT22;27754;45.414;11.084;2023-06-22T08:58:12;34.00;51.50
42097;DHT22;27754;45.414;11.084;2023-06-22T09:00:39;34.10;51.10
42097;DHT22;27754;45.414;11.084;2023-06-22T09:03:06;34.10;51.20
42097;DHT22;27754;45.414;11.084;2023-06-22T09:05:33;34.20;50.90
42097;DHT22;27754;45.414;11.084;2023-06-22T09:08:00;34.00;51.30
42097;DHT22;27754;45.414;11.084;2023-06-22T09:10:27;33.90;52.30
42097;DHT22;27754;45.414;11.084;2023-06-22T09:12:55;34.00;51.50
42097;DHT22;27754;45.414;11.084;2023-06-22T09:15:22;33.80;52.20
42097;DHT22;27754;45.414;11.084;2023-06-22T09:17:49;33.50;53.40
42097;DHT22;27754;45.414;11.084;2023-06-22T09:20:16;33.60;52.50
42097;DHT22;27754;45.414;11.084;2023-06-22T09:22:43;33.40;53.60
42097;DHT22;27754;45.414;11.084;2023-06-22T09:25:10;33.60;54.70
42097;DHT22;27754;45.414;11.084;2023-06-22T09:27:38;33.60;53.40
42097;DHT22;27754;45.414;11.084;2023-06-22T09:30:05;33.60;53.50
42097;DHT22;27754;45.414;11.084;2023-06-22T09:32:33;33.90;51.40
42097;DHT22;27754;45.414;11.084;2023-06-22T09:35:04;34.00;51.20
42097;DHT22;27754;45.414;11.084;2023-06-22T09:37:42;33.80;51.20
42097;DHT22;27754;45.414;11.084;2023-06-22T09:40:09;33.90;51.50
42097;DHT22;27754;45.414;11.084;2023-06-22T09:42:38;34.20;51.60
42097;DHT22;27754;45.414;11.084;2023-06-22T09:45:06;34.30;50.20
42097;DHT22;27754;45.414;11.084;2023-06-22T09:47:33;34.30;50.90
42097;DHT22;27754;45.414;11.084;2023-06-22T09:50:00;34.50;52.20
42097;DHT22;27754;45.414;11.084;2023-06-22T09:52:27;34.40;52.20
42097;DHT22;27754;45.414;11.084;2023-06-22T09:55:13;34.60;51.90
42097;DHT22;27754;45.414;11.084;2023-06-22T09:57:42;34.80;50.60
42097;DHT22;27754;45.414;11.084;2023-06-22T10:00:09;34.80;49.40
42097;DHT22;27754;45.414;11.084;2023-06-22T10:02:41;34.80;50.30
42097;DHT22;27754;45.414;11.084;2023-06-22T10:05:08;34.00;50.70
42097;DHT22;27754;45.414;11.084;2023-06-22T10:07:36;33.60;52.00
42097;DHT22;27754;45.414;11.084;2023-06-22T10:10:07;33.80;51.00
42097;DHT22;27754;45.414;11.084;2023-06-22T10:12:34;33.90;49.80
42097;DHT22;27754;45.414;11.084;2023-06-22T10:15:01;33.80;50.60
42097;DHT22;27754;45.414;11.084;2023-06-22T10:17:29;33.90;50.10
42097;DHT22;27754;45.414;11.084;2023-06-22T10:19:56;34.20;49.60
42097;DHT22;27754;45.414;11.084;2023-06-22T10:22:23;34.20;48.50
42097;DHT22;27754;45.414;11.084;2023-06-22T10:24:50;34.20;48.50
42097;DHT22;27754;45.414;11.084;2023-06-22T10:27:17;34.20;47.90
42097;DHT22;27754;45.414;11.084;2023-06-22T10:29:44;34.40;49.10
42097;DHT22;27754;45.414;11.084;2023-06-22T10:32:11;34.70;49.60
42097;DHT22;27754;45.414;11.084;2023-06-22T10:34:38;34.50;48.90
42097;DHT22;27754;45.414;11.084;2023-06-22T10:37:05;34.50;49.40
42097;DHT22;27754;45.414;11.084;2023-06-22T10:39:32;34.60;50.20
42097;DHT22;27754;45.414;11.084;2023-06-22T10:41:59;34.80;49.80
42097;DHT22;27754;45.414;11.084;2023-06-22T10:44:26;34.80;49.70
42097;DHT22;27754;45.414;11.084;2023-06-22T10:46:53;35.00;48.90
42097;DHT22;27754;45.414;11.084;2023-06-22T10:49:20;34.80;49.70
42097;DHT22;27754;45.414;11.084;2023-06-22T10:51:47;35.00;50.20
42097;DHT22;27754;45.414;11.084;2023-06-22T10:54:14;34.80;50.40
42097;DHT22;27754;45.414;11.084;2023-06-22T10:56:44;34.80;50.00
42097;DHT22;27754;45.414;11.084;2023-06-22T10:59:11;34.80;50.80
42097;DHT22;27754;45.414;11.084;2023-06-22T11:01:38;34.90;51.80
42097;DHT22;27754;45.414;11.084;2023-06-22T11:04:05;35.10;50.70
42097;DHT22;27754;45.414;11.084;2023-06-22T11:06:32;35.20;51.40
42097;DHT22;27754;45.414;11.084;2023-06-22T11:08:59;35.00;50.30
42097;DHT22;27754;45.414;11.084;2023-06-22T11:11:29;35.20;50.60
42097;DHT22;27754;45.414;11.084;2023-06-22T11:13:56;35.30;48.90
42097;DHT22;27754;45.414;11.084;2023-06-22T11:16:23;35.00;50.40
42097;DHT22;27754;45.414;11.084;2023-06-22T11:18:50;34.80;48.30
42097;DHT22;27754;45.414;11.084;2023-06-22T11:21:17;34.30;49.90
42097;DHT22;27754;45.414;11.084;2023-06-22T11:23:45;34.70;50.00
42097;DHT22;27754;45.414;11.084;2023-06-22T11:26:12;34.60;49.00
42097;DHT22;27754;45.414;11.084;2023-06-22T11:28:39;34.50;49.90
42097;DHT22;27754;45.414;11.084;2023-06-22T11:31:06;34.70;50.60
42097;DHT22;27754;45.414;11.084;2023-06-22T11:33:52;34.50;50.80
42097;DHT22;27754;45.414;11.084;2023-06-22T11:36:19;34.20;50.50
42097;DHT22;27754;45.414;11.084;2023-06-22T11:38:46;34.20;51.00
42097;DHT22;27754;45.414;11.084;2023-06-22T11:41:13;34.40;49.90
42097;DHT22;27754;45.414;11.084;2023-06-22T11:43:40;34.40;50.00
42097;DHT22;27754;45.414;11.084;2023-06-22T11:46:07;34.40;49.50
42097;DHT22;27754;45.414;11.084;2023-06-22T11:48:34;34.10;49.80
42097;DHT22;27754;45.414;11.084;2023-06-22T11:51:01;34.00;50.10
42097;DHT22;27754;45.414;11.084;2023-06-22T11:53:29;34.40;50.90
42097;DHT22;27754;45.414;11.084;2023-06-22T11:55:57;34.50;49.30
42097;DHT22;27754;45.414;11.084;2023-06-22T11:58:24;34.50;48.90
42097;DHT22;27754;45.414;11.084;2023-06-22T12:00:51;34.50;50.20
42097;DHT22;27754;45.414;11.084;2023-06-22T12:03:19;34.70;50.80
42097;DHT22;27754;45.414;11.084;2023-06-22T12:05:50;34.90;49.90
42097;DHT22;27754;45.414;11.084;2023-06-22T12:08:17;34.70;50.10
42097;DHT22;27754;45.414;11.084;2023-06-22T12:10:44;34.50;49.80
42097;DHT22;27754;45.414;11.084;2023-06-22T12:13:11;34.40;50.10
42097;DHT22;27754;45.414;11.084;2023-06-22T12:15:38;34.40;49.80
42097;DHT22;27754;45.414;11.084;2023-06-22T12:18:05;34.40;50.20
42097;DHT22;27754;45.414;11.084;2023-06-22T12:20:32;34.20;51.40
42097;DHT22;27754;45.414;11.084;2023-06-22T12:22:59;33.80;50.90
42097;DHT22;27754;45.414;11.084;2023-06-22T12:25:26;33.70;52.30
42097;DHT22;27754;45.414;11.084;2023-06-22T12:27:53;34.00;51.50
42097;DHT22;27754;45.414;11.084;2023-06-22T12:30:20;34.30;50.20
42097;DHT22;27754;45.414;11.084;2023-06-22T12:32:47;34.20;51.40
42097;DHT22;27754;45.414;11.084;2023-06-22T12:35:15;34.40;51.20
42097;DHT22;27754;45.414;11.084;2023-06-22T12:37:42;34.40;50.60
42097;DHT22;27754;45.414;11.084;2023-06-22T12:40:10;34.70;51.30
42097;DHT22;27754;45.414;11.084;2023-06-22T12:42:37;34.60;50.40
42097;DHT22;27754;45.414;11.084;2023-06-22T12:45:04;34.50;50.40
42097;DHT22;27754;45.414;11.084;2023-06-22T12:47:32;34.50;49.40
42097;DHT22;27754;45.414;11.084;2023-06-22T12:49:59;34.80;49.70
42097;DHT22;27754;45.414;11.084;2023-06-22T12:52:26;34.80;48.50
42097;DHT22;27754;45.414;11.084;2023-06-22T12:54:53;34.80;48.90
42097;DHT22;27754;45.414;11.084;2023-06-22T12:57:22;34.80;47.80
42097;DHT22;27754;45.414;11.084;2023-06-22T12:59:49;35.00;47.30
42097;DHT22;27754;45.414;11.084;2023-06-22T13:02:16;34.90;48.00
42097;DHT22;27754;45.414;11.084;2023-06-22T13:04:43;34.90;47.50
42097;DHT22;27754;45.414;11.084;2023-06-22T13:07:10;34.90;47.40
42097;DHT22;27754;45.414;11.084;2023-06-22T13:09:40;35.10;47.60
42097;DHT22;27754;45.414;11.084;2023-06-22T13:12:07;35.20;47.30
42097;DHT22;27754;45.414;11.084;2023-06-22T13:14:35;35.00;47.40
42097;DHT22;27754;45.414;11.084;2023-06-22T13:17:02;34.90;48.30
42097;DHT22;27754;45.414;11.084;2023-06-22T13:19:29;35.20;47.80
42097;DHT22;27754;45.414;11.084;2023-06-22T13:21:59;35.40;47.40
42097;DHT22;27754;45.414;11.084;2023-06-22T13:24:26;35.20;48.00
42097;DHT22;27754;45.414;11.084;2023-06-22T13:26:53;35.20;48.50
42097;DHT22;27754;45.414;11.084;2023-06-22T13:29:21;35.10;48.30
42097;DHT22;27754;45.414;11.084;2023-06-22T13:31:48;35.30;48.60
42097;DHT22;27754;45.414;11.084;2023-06-22T13:34:15;35.60;48.50
42097;DHT22;27754;45.414;11.084;2023-06-22T13:36:42;35.80;47.40
42097;DHT22;27754;45.414;11.084;2023-06-22T13:39:09;35.90;47.50
42097;DHT22;27754;45.414;11.084;2023-06-22T13:41:36;35.80;47.20
42097;DHT22;27754;45.414;11.084;2023-06-22T13:44:03;35.30;47.30
42097;DHT22;27754;45.414;11.084;2023-06-22T13:46:30;35.20;47.30
42097;DHT22;27754;45.414;11.084;2023-06-22T13:48:57;35.20;46.80
42097;DHT22;27754;45.414;11.084;2023-06-22T13:51:24;35.50;47.30
42097;DHT22;27754;45.414;11.084;2023-06-22T13:53:51;35.40;46.10
42097;DHT22;27754;45.414;11.084;2023-06-22T13:56:19;35.20;47.00
42097;DHT22;27754;45.414;11.084;2023-06-22T13:58:46;35.00;47.40
42097;DHT22;27754;45.414;11.084;2023-06-22T14:01:13;35.30;47.20
42097;DHT22;27754;45.414;11.084;2023-06-22T14:03:43;35.40;47.20
42097;DHT22;27754;45.414;11.084;2023-06-22T14:06:13;35.60;46.60
42097;DHT22;27754;45.414;11.084;2023-06-22T14:08:40;35.90;46.00
42097;DHT22;27754;45.414;11.084;2023-06-22T14:11:08;36.00;46.40
42097;DHT22;27754;45.414;11.084;2023-06-22T14:13:35;36.20;46.30
42097;DHT22;27754;45.414;11.084;2023-06-22T14:16:02;36.20;46.30
42097;DHT22;27754;45.414;11.084;2023-06-22T14:18:31;36.00;46.10
42097;DHT22;27754;45.414;11.084;2023-06-22T14:20:58;35.90;45.90
42097;DHT22;27754;45.414;11.084;2023-06-22T14:23:25;36.00;46.20
42097;DHT22;27754;45.414;11.084;2023-06-22T14:25:52;36.20;46.00
42097;DHT22;27754;45.414;11.084;2023-06-22T14:28:19;36.10;45.30
42097;DHT22;27754;45.414;11.084;2023-06-22T14:30:46;36.00;45.30
42097;DHT22;27754;45.414;11.084;2023-06-22T14:33:13;35.90;46.20
42097;DHT22;27754;45.414;11.084;2023-06-22T14:35:40;35.70;46.60
42097;DHT22;27754;45.414;11.084;2023-06-22T14:38:07;35.50;47.60
42097;DHT22;27754;45.414;11.084;2023-06-22T14:40:34;35.50;47.30
42097;DHT22;27754;45.414;11.084;2023-06-22T14:43:09;35.50;47.10
42097;DHT22;27754;45.414;11.084;2023-06-22T14:45:36;35.60;46.90
42097;DHT22;27754;45.414;11.084;2023-06-22T14:48:03;35.70;47.30
42097;DHT22;27754;45.414;11.084;2023-06-22T14:50:31;35.70;46.50
42097;DHT22;27754;45.414;11.084;2023-06-22T14:52:58;35.80;46.40
42097;DHT22;27754;45.414;11.084;2023-06-22T14:55:25;35.40;45.20
42097;DHT22;27754;45.414;11.084;2023-06-22T14:57:52;35.40;46.00
42097;DHT22;27754;45.414;11.084;2023-06-22T15:00:19;35.50;46.20
42097;DHT22;27754;45.414;11.084;2023-06-22T15:02:46;35.50;44.70
42097;DHT22;27754;45.414;11.084;2023-06-22T15:05:13;35.20;45.00
42097;DHT22;27754;45.414;11.084;2023-06-22T15:07:40;35.00;45.50
42097;DHT22;27754;45.414;11.084;2023-06-22T15:10:08;34.90;45.50
42097;DHT22;27754;45.414;11.084;2023-06-22T15:12:36;35.10;45.90
42097;DHT22;27754;45.414;11.084;2023-06-22T15:15:03;35.10;45.80
42097;DHT22;27754;45.414;11.084;2023-06-22T15:17:30;35.20;46.40
42097;DHT22;27754;45.414;11.084;2023-06-22T15:19:58;35.20;46.70
42097;DHT22;27754;45.414;11.084;2023-06-22T15:22:25;35.30;46.80
42097;DHT22;27754;45.414;11.084;2023-06-22T15:24:52;35.00;47.60